sensor_id;sensor_type;location;lat;lon;timestamp;P1;durP1;ratioP1;P2;durP2;ratioP2
4704;SDS011;2366;51.332;6.610;2024-03-23T00:54:34;36.43;;;11.97;;
4704;SDS011;2366;51.332;6.610;2024-03-23T00:56:59;35.93;;;9.40;;
4704;SDS011;2366;51.332;6.610;2024-03-23T00:59:25;25.23;;;8.03;;
4704;SDS011;2366;51.332;6.610;2024-03-23T01:01:53;25.77;;;7.55;;
4704;SDS011;2366;51.332;6.610;2024-03-23T01:04:19;44.03;;;8.73;;
4704;SDS011;2366;51.332;6.610;2024-03-23T01:06:45;19.50;;;6.13;;
4704;SDS011;2366;51.332;6.610;2024-03-23T01:09:10;27.97;;;8.10;;
4704;SDS011;2366;51.332;6.610;2024-03-23T01:11:36;30.50;;;7.47;;
4704;SDS011;2366;51.332;6.610;2024-03-23T01:14:02;32.60;;;7.90;;
4704;SDS011;2366;51.332;6.610;2024-03-23T01:16:27;27.23;;;6.87;;
4704;SDS011;2366;51.332;6.610;2024-03-23T01:18:53;29.17;;;6.70;;
4704;SDS011;2366;51.332;6.610;2024-03-23T01:21:18;32.87;;;6.50;;
4704;SDS011;2366;51.332;6.610;2024-03-23T01:23:44;25.20;;;7.40;;
4704;SDS011;2366;51.332;6.610;2024-03-23T01:26:09;25.40;;;6.67;;
4704;SDS011;2366;51.332;6.610;2024-03-23T01:28:35;24.73;;;6.33;;
4704;SDS011;2366;51.332;6.610;2024-03-23T01:31:00;31.77;;;6.97;;
4704;SDS011;2366;51.332;6.610;2024-03-23T01:33:26;27.63;;;7.40;;
4704;SDS011;2366;51.332;6.610;2024-03-23T01:35:51;24.80;;;6.63;;
4704;SDS011;2366;51.332;6.610;2024-03-23T01:38:16;25.17;;;6.53;;
4704;SDS011;2366;51.332;6.610;2024-03-23T01:40:42;34.83;;;5.93;;
4704;SDS011;2366;51.332;6.610;2024-03-23T01:43:07;38.73;;;6.97;;
4704;SDS011;2366;51.332;6.610;2024-03-23T01:45:33;23.85;;;5.15;;
4704;SDS011;2366;51.332;6.610;2024-03-23T01:50:32;17.10;;;5.15;;
4704;SDS011;2366;51.332;6.610;2024-03-23T01:53:02;26.15;;;6.35;;
4704;SDS011;2366;51.332;6.610;2024-03-23T01:55:28;16.30;;;5.43;;
4704;SDS011;2366;51.332;6.610;2024-03-23T01:57:56;18.10;;;4.55;;
4704;SDS011;2366;51.332;6.610;2024-03-23T02:00:21;21.58;;;5.47;;
4704;SDS011;2366;51.332;6.610;2024-03-23T02:02:48;21.48;;;6.55;;
4704;SDS011;2366;51.332;6.610;2024-03-23T02:05:13;27.83;;;6.63;;
4704;SDS011;2366;51.332;6.610;2024-03-23T02:07:39;28.53;;;5.13;;
4704;SDS011;2366;51.332;6.610;2024-03-23T02:10:09;32.85;;;5.65;;
4704;SDS011;2366;51.332;6.610;2024-03-23T02:12:35;21.20;;;5.43;;
4704;SDS011;2366;51.332;6.610;2024-03-23T02:15:01;26.80;;;5.43;;
4704;SDS011;2366;51.332;6.610;2024-03-23T02:17:28;38.07;;;6.87;;
4704;SDS011;2366;51.332;6.610;2024-03-23T02:19:55;20.58;;;5.20;;
4704;SDS011;2366;51.332;6.610;2024-03-23T02:22:20;27.97;;;5.30;;
4704;SDS011;2366;51.332;6.610;2024-03-23T02:24:46;30.10;;;6.00;;
4704;SDS011;2366;51.332;6.610;2024-03-23T02:27:11;26.13;;;5.43;;
4704;SDS011;2366;51.332;6.610;2024-03-23T02:29:37;15.90;;;5.27;;
4704;SDS011;2366;51.332;6.610;2024-03-23T02:32:02;28.00;;;5.40;;
4704;SDS011;2366;51.332;6.610;2024-03-23T02:34:28;22.17;;;5.67;;
4704;SDS011;2366;51.332;6.610;2024-03-23T02:36:53;34.17;;;5.93;;
4704;SDS011;2366;51.332;6.610;2024-03-23T02:39:18;21.23;;;5.70;;
4704;SDS011;2366;51.332;6.610;2024-03-23T02:41:44;33.43;;;5.13;;
4704;SDS011;2366;51.332;6.610;2024-03-23T02:44:09;26.60;;;6.03;;
4704;SDS011;2366;51.332;6.610;2024-03-23T02:46:37;22.40;;;5.45;;
4704;SDS011;2366;51.332;6.610;2024-03-23T02:49:03;23.60;;;5.32;;
4704;SDS011;2366;51.332;6.610;2024-03-23T02:51:29;17.17;;;5.65;;
4704;SDS011;2366;51.332;6.610;2024-03-23T02:53:55;25.03;;;6.33;;
4704;SDS011;2366;51.332;6.610;2024-03-23T02:56:20;24.07;;;6.23;;
4704;SDS011;2366;51.332;6.610;2024-03-23T02:58:45;24.23;;;5.37;;
4704;SDS011;2366;51.332;6.610;2024-03-23T03:01:11;19.87;;;5.40;;
4704;SDS011;2366;51.332;6.610;2024-03-23T03:03:36;25.47;;;5.20;;
4704;SDS011;2366;51.332;6.610;2024-03-23T03:06:01;23.43;;;6.13;;
4704;SDS011;2366;51.332;6.610;2024-03-23T03:08:27;25.03;;;6.83;;
4704;SDS011;2366;51.332;6.610;2024-03-23T03:10:52;18.00;;;5.07;;
4704;SDS011;2366;51.332;6.610;2024-03-23T03:13:17;20.17;;;6.20;;
4704;SDS011;2366;51.332;6.610;2024-03-23T03:15:43;26.40;;;5.83;;
4704;SDS011;2366;51.332;6.610;2024-03-23T03:18:09;19.75;;;6.70;;
4704;SDS011;2366;51.332;6.610;2024-03-23T03:20:38;25.27;;;6.90;;
4704;SDS011;2366;51.332;6.610;2024-03-23T03:23:07;25.02;;;5.97;;
4704;SDS011;2366;51.332;6.610;2024-03-23T03:25:33;24.43;;;6.80;;
4704;SDS011;2366;51.332;6.610;2024-03-23T03:27:59;31.92;;;5.95;;
4704;SDS011;2366;51.332;6.610;2024-03-23T03:30:24;26.40;;;6.37;;
4704;SDS011;2366;51.332;6.610;2024-03-23T03:32:50;24.40;;;5.63;;
4704;SDS011;2366;51.332;6.610;2024-03-23T03:35:18;31.92;;;5.75;;
4704;SDS011;2366;51.332;6.610;2024-03-23T03:37:43;27.37;;;6.57;;
4704;SDS011;2366;51.332;6.610;2024-03-23T03:40:09;23.27;;;6.10;;
4704;SDS011;2366;51.332;6.610;2024-03-23T03:42:36;33.13;;;5.88;;
4704;SDS011;2366;51.332;6.610;2024-03-23T03:45:01;27.37;;;5.50;;
4704;SDS011;2366;51.332;6.610;2024-03-23T03:47:29;24.23;;;6.40;;
4704;SDS011;2366;51.332;6.610;2024-03-23T03:49:55;20.07;;;5.40;;
4704;SDS011;2366;51.332;6.610;2024-03-23T03:52:20;22.80;;;6.13;;
4704;SDS011;2366;51.332;6.610;2024-03-23T03:54:45;19.60;;;7.30;;
4704;SDS011;2366;51.332;6.610;2024-03-23T03:57:11;15.77;;;6.32;;
4704;SDS011;2366;51.332;6.610;2024-03-23T03:59:37;32.90;;;5.70;;
4704;SDS011;2366;51.332;6.610;2024-03-23T04:02:02;19.97;;;6.53;;
4704;SDS011;2366;51.332;6.610;2024-03-23T04:04:27;30.40;;;6.90;;
4704;SDS011;2366;51.332;6.610;2024-03-23T04:07:02;25.73;;;7.43;;
4704;SDS011;2366;51.332;6.610;2024-03-23T04:09:27;20.00;;;6.05;;
4704;SDS011;2366;51.332;6.610;2024-03-23T04:11:53;25.40;;;6.27;;
4704;SDS011;2366;51.332;6.610;2024-03-23T04:14:18;29.60;;;7.23;;
4704;SDS011;2366;51.332;6.610;2024-03-23T04:16:44;23.93;;;7.20;;
4704;SDS011;2366;51.332;6.610;2024-03-23T04:19:09;24.80;;;7.67;;
4704;SDS011;2366;51.332;6.610;2024-03-23T04:21:35;33.47;;;8.77;;
4704;SDS011;2366;51.332;6.610;2024-03-23T04:24:02;24.55;;;7.22;;
4704;SDS011;2366;51.332;6.610;2024-03-23T04:26:28;24.87;;;7.60;;
4704;SDS011;2366;51.332;6.610;2024-03-23T04:28:53;34.77;;;9.10;;
4704;SDS011;2366;51.332;6.610;2024-03-23T04:31:18;36.97;;;9.17;;
4704;SDS011;2366;51.332;6.610;2024-03-23T04:33:44;31.20;;;10.00;;
4704;SDS011;2366;51.332;6.610;2024-03-23T04:36:09;41.90;;;10.57;;
4704;SDS011;2366;51.332;6.610;2024-03-23T04:38:35;45.13;;;10.20;;
4704;SDS011;2366;51.332;6.610;2024-03-23T04:41:01;44.23;;;11.47;;
4704;SDS011;2366;51.332;6.610;2024-03-23T04:43:26;30.57;;;11.40;;
4704;SDS011;2366;51.332;6.610;2024-03-23T04:45:52;53.53;;;12.00;;
4704;SDS011;2366;51.332;6.610;2024-03-23T04:48:21;27.63;;;10.20;;
4704;SDS011;2366;51.332;6.610;2024-03-23T04:50:47;45.83;;;11.50;;
4704;SDS011;2366;51.332;6.610;2024-03-23T04:53:13;59.20;;;12.93;;
4704;SDS011;2366;51.332;6.610;2024-03-23T04:55:38;46.83;;;13.20;;
4704;SDS011;2366;51.332;6.610;2024-03-23T04:58:03;46.13;;;13.47;;
4704;SDS011;2366;51.332;6.610;2024-03-23T05:00:29;49.57;;;13.30;;
4704;SDS011;2366;51.332;6.610;2024-03-23T05:02:54;46.83;;;14.20;;
4704;SDS011;2366;51.332;6.610;2024-03-23T05:05:19;39.40;;;13.40;;
4704;SDS011;2366;51.332;6.610;2024-03-23T05:07:45;56.83;;;15.43;;
4704;SDS011;2366;51.332;6.610;2024-03-23T05:10:10;38.20;;;11.60;;
4704;SDS011;2366;51.332;6.610;2024-03-23T05:12:39;45.63;;;13.70;;
4704;SDS011;2366;51.332;6.610;2024-03-23T05:15:05;45.15;;;13.90;;
4704;SDS011;2366;51.332;6.610;2024-03-23T05:17:32;74.07;;;15.25;;
4704;SDS011;2366;51.332;6.610;2024-03-23T05:19:58;48.28;;;14.70;;
4704;SDS011;2366;51.332;6.610;2024-03-23T05:22:23;40.60;;;13.37;;
4704;SDS011;2366;51.332;6.610;2024-03-23T05:24:49;48.87;;;15.00;;
4704;SDS011;2366;51.332;6.610;2024-03-23T05:27:14;65.47;;;15.63;;
4704;SDS011;2366;51.332;6.610;2024-03-23T05:29:40;52.87;;;17.23;;
4704;SDS011;2366;51.332;6.610;2024-03-23T05:32:05;54.33;;;16.00;;
4704;SDS011;2366;51.332;6.610;2024-03-23T05:34:31;70.50;;;19.43;;
4704;SDS011;2366;51.332;6.610;2024-03-23T05:36:56;68.87;;;19.20;;
4704;SDS011;2366;51.332;6.610;2024-03-23T05:39:22;56.70;;;18.77;;
4704;SDS011;2366;51.332;6.610;2024-03-23T05:41:47;70.17;;;20.83;;
4704;SDS011;2366;51.332;6.610;2024-03-23T05:44:13;67.90;;;21.37;;
4704;SDS011;2366;51.332;6.610;2024-03-23T05:46:40;72.15;;;23.25;;
4704;SDS011;2366;51.332;6.610;2024-03-23T05:49:05;69.93;;;22.23;;
4704;SDS011;2366;51.332;6.610;2024-03-23T05:51:31;70.27;;;20.67;;
4704;SDS011;2366;51.332;6.610;2024-03-23T05:53:56;80.03;;;23.67;;
4704;SDS011;2366;51.332;6.610;2024-03-23T05:56:22;73.20;;;24.20;;
4704;SDS011;2366;51.332;6.610;2024-03-23T05:58:47;69.73;;;21.70;;
4704;SDS011;2366;51.332;6.610;2024-03-23T06:01:13;73.78;;;24.48;;
4704;SDS011;2366;51.332;6.610;2024-03-23T06:03:39;85.37;;;26.57;;
4704;SDS011;2366;51.332;6.610;2024-03-23T06:06:04;64.67;;;24.37;;
4704;SDS011;2366;51.332;6.610;2024-03-23T06:08:30;98.10;;;23.77;;
4704;SDS011;2366;51.332;6.610;2024-03-23T06:10:55;110.87;;;28.30;;
4704;SDS011;2366;51.332;6.610;2024-03-23T06:13:21;97.50;;;27.73;;
4704;SDS011;2366;51.332;6.610;2024-03-23T06:15:49;88.90;;;24.88;;
4704;SDS011;2366;51.332;6.610;2024-03-23T06:18:15;79.60;;;25.63;;
4704;SDS011;2366;51.332;6.610;2024-03-23T06:20:40;88.30;;;27.67;;
4704;SDS011;2366;51.332;6.610;2024-03-23T06:23:06;108.33;;;26.97;;
4704;SDS011;2366;51.332;6.610;2024-03-23T06:25:31;77.07;;;25.87;;
4704;SDS011;2366;51.332;6.610;2024-03-23T06:27:57;84.70;;;24.30;;
4704;SDS011;2366;51.332;6.610;2024-03-23T06:30:23;75.53;;;24.65;;
4704;SDS011;2366;51.332;6.610;2024-03-23T06:32:48;85.23;;;22.57;;
4704;SDS011;2366;51.332;6.610;2024-03-23T06:35:14;73.97;;;23.30;;
4704;SDS011;2366;51.332;6.610;2024-03-23T06:37:39;63.63;;;21.47;;
4704;SDS011;2366;51.332;6.610;2024-03-23T06:40:06;57.28;;;20.98;;
4704;SDS011;2366;51.332;6.610;2024-03-23T06:42:34;79.30;;;22.33;;
4704;SDS011;2366;51.332;6.610;2024-03-23T06:45:00;72.70;;;19.83;;
4704;SDS011;2366;51.332;6.610;2024-03-23T06:47:25;45.50;;;14.00;;
4704;SDS011;2366;51.332;6.610;2024-03-23T06:49:50;33.77;;;12.13;;
4704;SDS011;2366;51.332;6.610;2024-03-23T06:52:16;25.83;;;8.63;;
4704;SDS011;2366;51.332;6.610;2024-03-23T06:54:41;18.73;;;8.03;;
4704;SDS011;2366;51.332;6.610;2024-03-23T06:57:06;17.27;;;7.07;;
4704;SDS011;2366;51.332;6.610;2024-03-23T06:59:32;19.87;;;8.00;;
4704;SDS011;2366;51.332;6.610;2024-03-23T07:01:57;18.10;;;6.57;;
4704;SDS011;2366;51.332;6.610;2024-03-23T07:04:23;23.43;;;7.07;;
4704;SDS011;2366;51.332;6.610;2024-03-23T07:06:48;13.90;;;6.53;;
4704;SDS011;2366;51.332;6.610;2024-03-23T07:09:13;14.37;;;5.47;;
4704;SDS011;2366;51.332;6.610;2024-03-23T07:11:39;13.63;;;5.93;;
4704;SDS011;2366;51.332;6.610;2024-03-23T07:14:04;18.77;;;6.17;;
4704;SDS011;2366;51.332;6.610;2024-03-23T07:16:29;19.27;;;6.57;;
4704;SDS011;2366;51.332;6.610;2024-03-23T07:18:55;11.83;;;5.40;;
4704;SDS011;2366;51.332;6.610;2024-03-23T07:21:20;20.50;;;5.77;;
4704;SDS011;2366;51.332;6.610;2024-03-23T07:23:46;15.07;;;5.70;;
4704;SDS011;2366;51.332;6.610;2024-03-23T07:26:11;11.63;;;6.00;;
4704;SDS011;2366;51.332;6.610;2024-03-23T07:28:37;11.17;;;5.37;;
4704;SDS011;2366;51.332;6.610;2024-03-23T07:31:03;14.83;;;5.43;;
4704;SDS011;2366;51.332;6.610;2024-03-23T07:33:30;14.70;;;5.57;;
4704;SDS011;2366;51.332;6.610;2024-03-23T07:35:56;17.20;;;4.47;;
4704;SDS011;2366;51.332;6.610;2024-03-23T07:38:21;16.13;;;4.60;;
4704;SDS011;2366;51.332;6.610;2024-03-23T07:40:47;8.97;;;4.03;;
4704;SDS011;2366;51.332;6.610;2024-03-23T07:43:15;11.07;;;4.63;;
4704;SDS011;2366;51.332;6.610;2024-03-23T07:45:40;13.33;;;4.47;;
4704;SDS011;2366;51.332;6.610;2024-03-23T07:48:05;15.73;;;4.63;;
4704;SDS011;2366;51.332;6.610;2024-03-23T07:50:31;14.93;;;6.60;;
4704;SDS011;2366;51.332;6.610;2024-03-23T07:52:57;12.53;;;3.93;;
4704;SDS011;2366;51.332;6.610;2024-03-23T07:55:22;8.60;;;4.63;;
4704;SDS011;2366;51.332;6.610;2024-03-23T07:57:47;10.40;;;4.80;;
4704;SDS011;2366;51.332;6.610;2024-03-23T08:00:13;10.83;;;4.60;;
4704;SDS011;2366;51.332;6.610;2024-03-23T08:02:38;9.33;;;4.33;;
4704;SDS011;2366;51.332;6.610;2024-03-23T08:05:04;11.63;;;4.00;;
4704;SDS011;2366;51.332;6.610;2024-03-23T08:07:30;9.17;;;4.27;;
4704;SDS011;2366;51.332;6.610;2024-03-23T08:09:55;8.97;;;4.40;;
4704;SDS011;2366;51.332;6.610;2024-03-23T08:12:20;11.90;;;4.23;;
4704;SDS011;2366;51.332;6.610;2024-03-23T08:14:46;7.43;;;4.03;;
4704;SDS011;2366;51.332;6.610;2024-03-23T08:17:11;9.13;;;3.50;;
4704;SDS011;2366;51.332;6.610;2024-03-23T08:19:36;12.50;;;4.50;;
4704;SDS011;2366;51.332;6.610;2024-03-23T08:22:02;8.30;;;3.37;;
4704;SDS011;2366;51.332;6.610;2024-03-23T08:24:27;5.20;;;2.37;;
4704;SDS011;2366;51.332;6.610;2024-03-23T08:26:54;2.80;;;1.10;;
4704;SDS011;2366;51.332;6.610;2024-03-23T08:29:19;3.95;;;1.20;;
4704;SDS011;2366;51.332;6.610;2024-03-23T08:31:45;6.83;;;1.60;;
4704;SDS011;2366;51.332;6.610;2024-03-23T08:34:10;5.13;;;2.60;;
4704;SDS011;2366;51.332;6.610;2024-03-23T08:36:36;5.67;;;1.63;;
4704;SDS011;2366;51.332;6.610;2024-03-23T08:39:01;3.60;;;2.00;;
4704;SDS011;2366;51.332;6.610;2024-03-23T08:41:27;4.97;;;1.93;;
4704;SDS011;2366;51.332;6.610;2024-03-23T08:43:52;4.00;;;2.47;;
4704;SDS011;2366;51.332;6.610;2024-03-23T08:46:17;3.90;;;1.97;;
4704;SDS011;2366;51.332;6.610;2024-03-23T08:48:46;1.70;;;1.60;;
4704;SDS011;2366;51.332;6.610;2024-03-23T08:51:14;2.67;;;1.67;;
4704;SDS011;2366;51.332;6.610;2024-03-23T08:53:40;2.05;;;1.85;;
4704;SDS011;2366;51.332;6.610;2024-03-23T08:56:07;4.13;;;1.73;;
4704;SDS011;2366;51.332;6.610;2024-03-23T08:58:33;3.15;;;2.03;;
4704;SDS011;2366;51.332;6.610;2024-03-23T09:01:11;5.45;;;2.28;;
4704;SDS011;2366;51.332;6.610;2024-03-23T09:03:38;5.65;;;3.30;;
4704;SDS011;2366;51.332;6.610;2024-03-23T09:06:07;10.13;;;2.83;;
4704;SDS011;2366;51.332;6.610;2024-03-23T09:08:34;7.27;;;2.90;;
4704;SDS011;2366;51.332;6.610;2024-03-23T09:11:06;7.70;;;3.20;;
4704;SDS011;2366;51.332;6.610;2024-03-23T09:13:35;9.03;;;3.30;;
4704;SDS011;2366;51.332;6.610;2024-03-23T09:16:02;8.00;;;2.80;;
4704;SDS011;2366;51.332;6.610;2024-03-23T09:18:30;11.47;;;2.93;;
4704;SDS011;2366;51.332;6.610;2024-03-23T09:21:00;11.33;;;3.23;;
4704;SDS011;2366;51.332;6.610;2024-03-23T09:23:25;10.70;;;3.23;;
4704;SDS011;2366;51.332;6.610;2024-03-23T09:25:51;9.37;;;2.40;;
4704;SDS011;2366;51.332;6.610;2024-03-23T09:28:16;16.03;;;4.80;;
4704;SDS011;2366;51.332;6.610;2024-03-23T09:30:42;8.10;;;2.80;;
4704;SDS011;2366;51.332;6.610;2024-03-23T09:33:13;8.03;;;3.20;;
4704;SDS011;2366;51.332;6.610;2024-03-23T09:35:39;6.57;;;2.80;;
4704;SDS011;2366;51.332;6.610;2024-03-23T09:38:05;10.00;;;3.03;;
4704;SDS011;2366;51.332;6.610;2024-03-23T09:40:32;17.73;;;5.10;;
4704;SDS011;2366;51.332;6.610;2024-03-23T09:42:58;9.27;;;3.60;;
4704;SDS011;2366;51.332;6.610;2024-03-23T09:45:27;6.30;;;2.93;;
4704;SDS011;2366;51.332;6.610;2024-03-23T09:47:57;7.63;;;2.77;;
4704;SDS011;2366;51.332;6.610;2024-03-23T09:50:23;9.40;;;2.97;;
4704;SDS011;2366;51.332;6.610;2024-03-23T09:52:48;5.67;;;2.77;;
4704;SDS011;2366;51.332;6.610;2024-03-23T09:55:14;10.70;;;2.83;;
4704;SDS011;2366;51.332;6.610;2024-03-23T09:57:40;17.17;;;3.30;;
4704;SDS011;2366;51.332;6.610;2024-03-23T10:00:06;8.10;;;3.20;;
4704;SDS011;2366;51.332;6.610;2024-03-23T10:02:33;14.43;;;3.10;;
4704;SDS011;2366;51.332;6.610;2024-03-23T10:04:59;9.00;;;3.00;;
4704;SDS011;2366;51.332;6.610;2024-03-23T10:07:25;6.27;;;2.70;;
4704;SDS011;2366;51.332;6.610;2024-03-23T10:09:50;9.75;;;3.10;;
4704;SDS011;2366;51.332;6.610;2024-03-23T10:12:17;9.07;;;2.63;;
4704;SDS011;2366;51.332;6.610;2024-03-23T10:14:43;8.57;;;3.00;;
4704;SDS011;2366;51.332;6.610;2024-03-23T10:17:19;21.93;;;3.80;;
4704;SDS011;2366;51.332;6.610;2024-03-23T10:19:48;6.70;;;2.20;;
4704;SDS011;2366;51.332;6.610;2024-03-23T10:22:17;9.57;;;2.63;;
4704;SDS011;2366;51.332;6.610;2024-03-23T10:24:46;5.10;;;1.65;;
4704;SDS011;2366;51.332;6.610;2024-03-23T10:27:16;3.95;;;1.67;;
4704;SDS011;2366;51.332;6.610;2024-03-23T10:29:44;2.92;;;1.70;;
4704;SDS011;2366;51.332;6.610;2024-03-23T10:32:13;6.38;;;1.60;;
4704;SDS011;2366;51.332;6.610;2024-03-23T10:34:39;7.93;;;1.80;;
4704;SDS011;2366;51.332;6.610;2024-03-23T10:37:05;3.97;;;1.63;;
4704;SDS011;2366;51.332;6.610;2024-03-23T10:39:35;6.55;;;1.80;;
4704;SDS011;2366;51.332;6.610;2024-03-23T10:42:02;7.57;;;1.35;;
4704;SDS011;2366;51.332;6.610;2024-03-23T10:44:29;2.80;;;1.38;;
4704;SDS011;2366;51.332;6.610;2024-03-23T10:46:56;3.63;;;1.15;;
4704;SDS011;2366;51.332;6.610;2024-03-23T10:49:34;3.10;;;1.00;;
4704;SDS011;2366;51.332;6.610;2024-03-23T10:52:01;3.33;;;1.10;;
4704;SDS011;2366;51.332;6.610;2024-03-23T10:54:28;2.05;;;0.95;;
4704;SDS011;2366;51.332;6.610;2024-03-23T10:57:01;7.82;;;0.90;;
4704;SDS011;2366;51.332;6.610;2024-03-23T10:59:27;1.80;;;0.70;;
4704;SDS011;2366;51.332;6.610;2024-03-23T11:01:58;5.85;;;0.80;;
4704;SDS011;2366;51.332;6.610;2024-03-23T11:04:31;2.78;;;1.20;;
4704;SDS011;2366;51.332;6.610;2024-03-23T11:07:03;2.40;;;1.35;;
4704;SDS011;2366;51.332;6.610;2024-03-23T11:09:51;1.33;;;1.23;;
4704;SDS011;2366;51.332;6.610;2024-03-23T11:14:45;7.80;;;2.40;;
4704;SDS011;2366;51.332;6.610;2024-03-23T11:17:10;9.60;;;2.83;;
4704;SDS011;2366;51.332;6.610;2024-03-23T11:19:36;8.80;;;3.03;;
4704;SDS011;2366;51.332;6.610;2024-03-23T11:22:03;8.95;;;2.20;;
4704;SDS011;2366;51.332;6.610;2024-03-23T11:24:29;4.22;;;1.50;;
4704;SDS011;2366;51.332;6.610;2024-03-23T11:26:55;5.73;;;1.73;;
4704;SDS011;2366;51.332;6.610;2024-03-23T11:29:20;5.80;;;2.13;;
4704;SDS011;2366;51.332;6.610;2024-03-23T11:31:49;8.30;;;1.90;;
4704;SDS011;2366;51.332;6.610;2024-03-23T11:34:17;7.63;;;2.45;;
4704;SDS011;2366;51.332;6.610;2024-03-23T11:36:43;6.47;;;2.50;;
4704;SDS011;2366;51.332;6.610;2024-03-23T11:39:19;3.60;;;1.23;;
4704;SDS011;2366;51.332;6.610;2024-03-23T11:41:56;2.88;;;1.23;;
4704;SDS011;2366;51.332;6.610;2024-03-23T11:44:22;4.65;;;2.08;;
4704;SDS011;2366;51.332;6.610;2024-03-23T11:46:50;5.53;;;1.60;;
4704;SDS011;2366;51.332;6.610;2024-03-23T11:49:29;3.10;;;1.42;;
4704;SDS011;2366;51.332;6.610;2024-03-23T11:51:55;1.52;;;1.42;;
4704;SDS011;2366;51.332;6.610;2024-03-23T11:54:22;3.47;;;1.30;;
4704;SDS011;2366;51.332;6.610;2024-03-23T11:56:55;3.15;;;1.65;;
4704;SDS011;2366;51.332;6.610;2024-03-23T11:59:38;5.95;;;1.65;;
4704;SDS011;2366;51.332;6.610;2024-03-23T12:02:12;10.00;;;2.15;;
4704;SDS011;2366;51.332;6.610;2024-03-23T12:04:41;3.03;;;1.50;;
4704;SDS011;2366;51.332;6.610;2024-03-23T12:07:14;9.07;;;2.20;;
4704;SDS011;2366;51.332;6.610;2024-03-23T12:09:44;1.77;;;1.38;;
4704;SDS011;2366;51.332;6.610;2024-03-23T12:12:14;3.38;;;1.65;;
4704;SDS011;2366;51.332;6.610;2024-03-23T12:14:44;10.77;;;2.15;;
4704;SDS011;2366;51.332;6.610;2024-03-23T12:17:14;4.07;;;2.00;;
4704;SDS011;2366;51.332;6.610;2024-03-23T12:19:40;5.80;;;2.40;;
4704;SDS011;2366;51.332;6.610;2024-03-23T12:22:09;10.35;;;2.67;;
4704;SDS011;2366;51.332;6.610;2024-03-23T12:24:35;4.68;;;2.38;;
4704;SDS011;2366;51.332;6.610;2024-03-23T12:27:03;7.20;;;2.80;;
4704;SDS011;2366;51.332;6.610;2024-03-23T12:29:30;5.95;;;2.50;;
4704;SDS011;2366;51.332;6.610;2024-03-23T12:31:59;4.78;;;2.58;;
4704;SDS011;2366;51.332;6.610;2024-03-23T12:34:25;6.40;;;3.05;;
4704;SDS011;2366;51.332;6.610;2024-03-23T12:36:51;3.80;;;2.23;;
4704;SDS011;2366;51.332;6.610;2024-03-23T12:39:16;8.70;;;2.03;;
4704;SDS011;2366;51.332;6.610;2024-03-23T12:41:43;2.88;;;1.60;;
4704;SDS011;2366;51.332;6.610;2024-03-23T12:44:08;7.90;;;1.50;;
4704;SDS011;2366;51.332;6.610;2024-03-23T12:46:36;3.00;;;1.35;;
4704;SDS011;2366;51.332;6.610;2024-03-23T12:49:04;4.80;;;1.90;;
4704;SDS011;2366;51.332;6.610;2024-03-23T12:51:31;4.65;;;1.98;;
4704;SDS011;2366;51.332;6.610;2024-03-23T12:53:57;4.55;;;1.38;;
4704;SDS011;2366;51.332;6.610;2024-03-23T12:56:22;6.13;;;2.00;;
4704;SDS011;2366;51.332;6.610;2024-03-23T12:58:47;3.87;;;2.27;;
4704;SDS011;2366;51.332;6.610;2024-03-23T13:01:16;8.32;;;1.92;;
4704;SDS011;2366;51.332;6.610;2024-03-23T13:03:46;3.47;;;1.60;;
4704;SDS011;2366;51.332;6.610;2024-03-23T13:06:12;1.65;;;1.25;;
4704;SDS011;2366;51.332;6.610;2024-03-23T13:08:38;9.13;;;2.53;;
4704;SDS011;2366;51.332;6.610;2024-03-23T13:11:05;4.28;;;1.30;;
4704;SDS011;2366;51.332;6.610;2024-03-23T13:13:30;4.53;;;1.63;;
4704;SDS011;2366;51.332;6.610;2024-03-23T13:15:57;9.40;;;2.50;;
4704;SDS011;2366;51.332;6.610;2024-03-23T13:18:22;5.97;;;2.17;;
4704;SDS011;2366;51.332;6.610;2024-03-23T13:20:47;6.43;;;1.90;;
4704;SDS011;2366;51.332;6.610;2024-03-23T13:23:13;6.23;;;1.47;;
4704;SDS011;2366;51.332;6.610;2024-03-23T13:25:38;4.20;;;1.13;;
4704;SDS011;2366;51.332;6.610;2024-03-23T13:28:04;2.00;;;0.90;;
4704;SDS011;2366;51.332;6.610;2024-03-23T13:30:29;4.73;;;1.47;;
4704;SDS011;2366;51.332;6.610;2024-03-23T13:32:55;2.80;;;1.50;;
4704;SDS011;2366;51.332;6.610;2024-03-23T13:35:20;3.20;;;1.40;;
4704;SDS011;2366;51.332;6.610;2024-03-23T13:37:46;1.90;;;1.00;;
4704;SDS011;2366;51.332;6.610;2024-03-23T13:40:11;5.10;;;1.63;;
4704;SDS011;2366;51.332;6.610;2024-03-23T13:42:37;4.90;;;1.23;;
4704;SDS011;2366;51.332;6.610;2024-03-23T13:45:03;2.60;;;1.07;;
4704;SDS011;2366;51.332;6.610;2024-03-23T13:47:29;2.58;;;1.20;;
4704;SDS011;2366;51.332;6.610;2024-03-23T13:49:54;5.23;;;1.10;;
4704;SDS011;2366;51.332;6.610;2024-03-23T13:52:21;5.15;;;1.50;;
4704;SDS011;2366;51.332;6.610;2024-03-23T13:54:48;2.50;;;1.60;;
4704;SDS011;2366;51.332;6.610;2024-03-23T13:57:13;7.00;;;1.93;;
4704;SDS011;2366;51.332;6.610;2024-03-23T13:59:39;5.20;;;1.17;;
4704;SDS011;2366;51.332;6.610;2024-03-23T14:02:05;5.70;;;1.40;;
4704;SDS011;2366;51.332;6.610;2024-03-23T14:04:30;2.37;;;1.40;;
4704;SDS011;2366;51.332;6.610;2024-03-23T14:06:58;7.30;;;2.20;;
4704;SDS011;2366;51.332;6.610;2024-03-23T14:09:23;4.45;;;1.58;;
4704;SDS011;2366;51.332;6.610;2024-03-23T14:11:51;4.40;;;2.50;;
4704;SDS011;2366;51.332;6.610;2024-03-23T14:14:16;5.00;;;1.77;;
4704;SDS011;2366;51.332;6.610;2024-03-23T14:16:42;4.73;;;1.87;;
4704;SDS011;2366;51.332;6.610;2024-03-23T14:19:08;5.13;;;1.40;;
4704;SDS011;2366;51.332;6.610;2024-03-23T14:21:36;1.40;;;1.13;;
4704;SDS011;2366;51.332;6.610;2024-03-23T14:24:03;3.05;;;1.15;;
4704;SDS011;2366;51.332;6.610;2024-03-23T14:26:29;4.50;;;1.60;;
4704;SDS011;2366;51.332;6.610;2024-03-23T14:28:54;10.70;;;1.83;;
4704;SDS011;2366;51.332;6.610;2024-03-23T14:31:20;3.47;;;1.70;;
4704;SDS011;2366;51.332;6.610;2024-03-23T14:33:45;4.03;;;1.40;;
4704;SDS011;2366;51.332;6.610;2024-03-23T14:36:14;5.13;;;1.50;;
4704;SDS011;2366;51.332;6.610;2024-03-23T14:38:41;4.50;;;1.40;;
4704;SDS011;2366;51.332;6.610;2024-03-23T14:41:07;2.50;;;1.23;;
4704;SDS011;2366;51.332;6.610;2024-03-23T14:43:33;3.13;;;1.63;;
4704;SDS011;2366;51.332;6.610;2024-03-23T14:46:11;8.00;;;1.40;;
4704;SDS011;2366;51.332;6.610;2024-03-23T14:48:44;2.95;;;1.13;;
4704;SDS011;2366;51.332;6.610;2024-03-23T14:51:11;4.32;;;1.58;;
4704;SDS011;2366;51.332;6.610;2024-03-23T14:53:37;2.90;;;1.00;;
4704;SDS011;2366;51.332;6.610;2024-03-23T14:56:07;4.22;;;1.45;;
4704;SDS011;2366;51.332;6.610;2024-03-23T14:58:33;5.45;;;1.30;;
4704;SDS011;2366;51.332;6.610;2024-03-23T15:01:02;3.15;;;1.40;;
4704;SDS011;2366;51.332;6.610;2024-03-23T15:03:29;3.40;;;1.50;;
4704;SDS011;2366;51.332;6.610;2024-03-23T15:05:55;2.80;;;1.53;;
4704;SDS011;2366;51.332;6.610;2024-03-23T15:08:21;2.65;;;1.80;;
4704;SDS011;2366;51.332;6.610;2024-03-23T15:10:47;3.17;;;1.30;;
4704;SDS011;2366;51.332;6.610;2024-03-23T15:13:13;10.53;;;1.47;;
4704;SDS011;2366;51.332;6.610;2024-03-23T15:15:40;5.25;;;1.45;;
4704;SDS011;2366;51.332;6.610;2024-03-23T15:18:08;1.80;;;1.23;;
4704;SDS011;2366;51.332;6.610;2024-03-23T15:20:34;5.57;;;1.50;;
4704;SDS011;2366;51.332;6.610;2024-03-23T15:23:01;3.85;;;1.73;;
4704;SDS011;2366;51.332;6.610;2024-03-23T15:25:27;4.25;;;1.67;;
4704;SDS011;2366;51.332;6.610;2024-03-23T15:27:53;4.30;;;1.70;;
4704;SDS011;2366;51.332;6.610;2024-03-23T15:30:19;2.50;;;1.35;;
4704;SDS011;2366;51.332;6.610;2024-03-23T15:32:45;1.90;;;1.67;;
4704;SDS011;2366;51.332;6.610;2024-03-23T15:35:10;3.73;;;1.70;;
4704;SDS011;2366;51.332;6.610;2024-03-23T15:37:36;5.18;;;1.50;;
4704;SDS011;2366;51.332;6.610;2024-03-23T15:40:04;4.55;;;2.35;;
4704;SDS011;2366;51.332;6.610;2024-03-23T15:42:30;4.78;;;1.33;;
4704;SDS011;2366;51.332;6.610;2024-03-23T15:44:55;3.97;;;1.87;;
4704;SDS011;2366;51.332;6.610;2024-03-23T15:47:21;7.30;;;2.43;;
4704;SDS011;2366;51.332;6.610;2024-03-23T15:49:46;3.67;;;1.73;;
4704;SDS011;2366;51.332;6.610;2024-03-23T15:52:12;4.47;;;1.80;;
4704;SDS011;2366;51.332;6.610;2024-03-23T15:54:37;4.07;;;1.23;;
4704;SDS011;2366;51.332;6.610;2024-03-23T15:57:03;3.33;;;1.13;;
4704;SDS011;2366;51.332;6.610;2024-03-23T15:59:28;4.90;;;1.50;;